sensor_id;sensor_type;location;lat;lon;timestamp;temperature;humidity
45643;DHT22;31358;46.008;11.144;2023-02-02T00:01:38;3.60;85.60
45643;DHT22;31358;46.008;11.144;2023-02-02T00:04:04;3.60;86.40
45643;DHT22;31358;46.008;11.144;2023-02-02T00:06:30;3.50;86.90
45643;DHT22;31358;46.008;11.144;2023-02-02T00:08:58;3.40;85.80
45643;DHT22;31358;46.008;11.144;2023-02-02T00:11:24;3.40;86.00
45643;DHT22;31358;46.008;11.144;2023-02-02T00:13:50;3.40;85.00
45643;DHT22;31358;46.008;11.144;2023-02-02T00:18:50;3.60;84.70
45643;DHT22;31358;46.008;11.144;2023-02-02T00:21:15;3.70;83.80
45643;DHT22;31358;46.008;11.144;2023-02-02T00:23:41;3.60;84.30
45643;DHT22;31358;46.008;11.144;2023-02-02T00:26:07;3.50;84.30
45643;DHT22;31358;46.008;11.144;2023-02-02T00:28:32;3.70;84.00
45643;DHT22;31358;46.008;11.144;2023-02-02T00:30:58;3.80;84.30
45643;DHT22;31358;46.008;11.144;2023-02-02T00:33:24;3.60;84.70
45643;DHT22;31358;46.008;11.144;2023-02-02T00:35:51;3.60;84.20
45643;DHT22;31358;46.008;11.144;2023-02-02T00:38:17;3.50;85.20
45643;DHT22;31358;46.008;11.144;2023-02-02T00:40:43;3.40;85.60
45643;DHT22;31358;46.008;11.144;2023-02-02T00:43:09;3.30;84.60
45643;DHT22;31358;46.008;11.144;2023-02-02T00:45:36;3.50;83.70
45643;DHT22;31358;46.008;11.144;2023-02-02T00:48:02;3.70;83.10
45643;DHT22;31358;46.008;11.144;2023-02-02T00:50:28;3.80;83.20
45643;DHT22;31358;46.008;11.144;2023-02-02T00:52:54;3.80;83.80
45643;DHT22;31358;46.008;11.144;2023-02-02T00:55:20;3.70;83.20
45643;DHT22;31358;46.008;11.144;2023-02-02T00:57:46;3.70;84.50
45643;DHT22;31358;46.008;11.144;2023-02-02T01:00:22;3.70;83.30
45643;DHT22;31358;46.008;11.144;2023-02-02T01:02:52;4.00;81.40
45643;DHT22;31358;46.008;11.144;2023-02-02T01:05:19;3.90;82.80
45643;DHT22;31358;46.008;11.144;2023-02-02T01:07:45;3.70;83.00
45643;DHT22;31358;46.008;11.144;2023-02-02T01:10:16;3.80;82.90
45643;DHT22;31358;46.008;11.144;2023-02-02T01:12:42;4.20;81.40
45643;DHT22;31358;46.008;11.144;2023-02-02T01:15:09;4.10;81.80
45643;DHT22;31358;46.008;11.144;2023-02-02T01:17:35;4.20;81.70
45643;DHT22;31358;46.008;11.144;2023-02-02T01:20:01;3.80;83.80
45643;DHT22;31358;46.008;11.144;2023-02-02T01:22:27;3.70;85.20
45643;DHT22;31358;46.008;11.144;2023-02-02T01:24:52;3.40;84.40
45643;DHT22;31358;46.008;11.144;2023-02-02T01:27:18;3.40;85.00
45643;DHT22;31358;46.008;11.144;2023-02-02T01:29:44;3.30;85.00
45643;DHT22;31358;46.008;11.144;2023-02-02T01:32:09;3.30;85.50
45643;DHT22;31358;46.008;11.144;2023-02-02T01:34:35;3.30;84.00
45643;DHT22;31358;46.008;11.144;2023-02-02T01:37:05;3.20;84.70
45643;DHT22;31358;46.008;11.144;2023-02-02T01:39:30;3.10;84.90
45643;DHT22;31358;46.008;11.144;2023-02-02T01:41:56;3.40;83.60
45643;DHT22;31358;46.008;11.144;2023-02-02T01:47:15;3.50;83.70
45643;DHT22;31358;46.008;11.144;2023-02-02T01:49:41;3.40;84.40
45643;DHT22;31358;46.008;11.144;2023-02-02T01:52:08;3.40;83.90
45643;DHT22;31358;46.008;11.144;2023-02-02T01:54:39;3.60;83.50
45643;DHT22;31358;46.008;11.144;2023-02-02T01:57:11;3.40;84.70
45643;DHT22;31358;46.008;11.144;2023-02-02T01:59:38;3.30;84.30
45643;DHT22;31358;46.008;11.144;2023-02-02T02:02:04;3.40;83.50
45643;DHT22;31358;46.008;11.144;2023-02-02T02:04:30;3.70;83.10
45643;DHT22;31358;46.008;11.144;2023-02-02T02:06:58;3.50;84.20
45643;DHT22;31358;46.008;11.144;2023-02-02T02:09:24;3.20;84.90
45643;DHT22;31358;46.008;11.144;2023-02-02T02:11:52;3.00;86.60
45643;DHT22;31358;46.008;11.144;2023-02-02T02:14:17;2.80;86.50
45643;DHT22;31358;46.008;11.144;2023-02-02T02:34:19;2.80;85.70
45643;DHT22;31358;46.008;11.144;2023-02-02T02:41:58;2.80;86.80
45643;DHT22;31358;46.008;11.144;2023-02-02T02:44:25;2.80;85.20
45643;DHT22;31358;46.008;11.144;2023-02-02T02:46:52;2.90;84.70
45643;DHT22;31358;46.008;11.144;2023-02-02T02:49:17;2.80;86.90
45643;DHT22;31358;46.008;11.144;2023-02-02T02:51:50;2.80;85.20
45643;DHT22;31358;46.008;11.144;2023-02-02T02:54:23;2.60;87.10
45643;DHT22;31358;46.008;11.144;2023-02-02T03:07:49;2.80;85.70
45643;DHT22;31358;46.008;11.144;2023-02-02T03:10:17;2.70;87.00
45643;DHT22;31358;46.008;11.144;2023-02-02T03:12:49;2.40;87.60
45643;DHT22;31358;46.008;11.144;2023-02-02T03:15:16;2.30;87.60
45643;DHT22;31358;46.008;11.144;2023-02-02T03:17:42;2.20;88.10
45643;DHT22;31358;46.008;11.144;2023-02-02T03:20:09;2.30;87.60
45643;DHT22;31358;46.008;11.144;2023-02-02T03:22:35;2.30;86.00
45643;DHT22;31358;46.008;11.144;2023-02-02T03:25:01;2.40;86.10
45643;DHT22;31358;46.008;11.144;2023-02-02T03:27:27;2.50;85.80
45643;DHT22;31358;46.008;11.144;2023-02-02T03:29:53;2.70;84.60
45643;DHT22;31358;46.008;11.144;2023-02-02T03:32:19;3.00;83.90
45643;DHT22;31358;46.008;11.144;2023-02-02T03:34:45;2.90;84.40
45643;DHT22;31358;46.008;11.144;2023-02-02T03:37:11;2.80;85.00
45643;DHT22;31358;46.008;11.144;2023-02-02T03:39:36;2.70;85.50
45643;DHT22;31358;46.008;11.144;2023-02-02T03:42:02;2.40;85.30
45643;DHT22;31358;46.008;11.144;2023-02-02T03:44:27;2.50;85.00
45643;DHT22;31358;46.008;11.144;2023-02-02T03:46:53;2.60;85.00
45643;DHT22;31358;46.008;11.144;2023-02-02T03:49:19;2.70;85.30
45643;DHT22;31358;46.008;11.144;2023-02-02T03:51:45;2.80;86.00
45643;DHT22;31358;46.008;11.144;2023-02-02T03:54:11;2.60;86.20
45643;DHT22;31358;46.008;11.144;2023-02-02T03:56:36;2.50;85.50
45643;DHT22;31358;46.008;11.144;2023-02-02T03:59:02;2.40;85.30
45643;DHT22;31358;46.008;11.144;2023-02-02T04:01:28;2.40;85.30
45643;DHT22;31358;46.008;11.144;2023-02-02T04:03:55;2.50;85.10
45643;DHT22;31358;46.008;11.144;2023-02-02T04:06:21;2.80;83.60
45643;DHT22;31358;46.008;11.144;2023-02-02T04:08:47;2.90;84.20
45643;DHT22;31358;46.008;11.144;2023-02-02T04:11:13;3.00;83.70
45643;DHT22;31358;46.008;11.144;2023-02-02T04:13:38;3.10;82.80
45643;DHT22;31358;46.008;11.144;2023-02-02T04:16:05;3.10;83.10
45643;DHT22;31358;46.008;11.144;2023-02-02T04:18:31;2.90;83.60
45643;DHT22;31358;46.008;11.144;2023-02-02T04:20:58;2.90;84.00
45643;DHT22;31358;46.008;11.144;2023-02-02T04:23:24;2.80;84.70
45643;DHT22;31358;46.008;11.144;2023-02-02T04:25:50;2.80;85.30
45643;DHT22;31358;46.008;11.144;2023-02-02T04:28:16;2.80;84.10
45643;DHT22;31358;46.008;11.144;2023-02-02T04:30:42;2.90;83.50
45643;DHT22;31358;46.008;11.144;2023-02-02T04:33:08;2.90;84.40
45643;DHT22;31358;46.008;11.144;2023-02-02T04:35:33;2.80;84.80
45643;DHT22;31358;46.008;11.144;2023-02-02T04:37:59;2.70;85.60
45643;DHT22;31358;46.008;11.144;2023-02-02T04:40:25;2.60;85.20
45643;DHT22;31358;46.008;11.144;2023-02-02T04:42:51;2.50;85.20
45643;DHT22;31358;46.008;11.144;2023-02-02T04:45:17;2.60;84.90
45643;DHT22;31358;46.008;11.144;2023-02-02T04:47:42;2.80;84.50
45643;DHT22;31358;46.008;11.144;2023-02-02T04:50:08;2.70;84.80
45643;DHT22;31358;46.008;11.144;2023-02-02T04:52:34;2.80;84.60
45643;DHT22;31358;46.008;11.144;2023-02-02T04:55:00;2.80;86.00
45643;DHT22;31358;46.008;11.144;2023-02-02T04:57:26;2.50;86.20
45643;DHT22;31358;46.008;11.144;2023-02-02T04:59:51;2.40;85.40
45643;DHT22;31358;46.008;11.144;2023-02-02T05:02:17;2.50;85.20
45643;DHT22;31358;46.008;11.144;2023-02-02T05:04:44;2.80;84.70
45643;DHT22;31358;46.008;11.144;2023-02-02T05:07:10;2.70;85.90
45643;DHT22;31358;46.008;11.144;2023-02-02T05:09:35;2.60;85.30
45643;DHT22;31358;46.008;11.144;2023-02-02T05:12:01;2.60;85.00
45643;DHT22;31358;46.008;11.144;2023-02-02T05:14:26;2.70;85.20
45643;DHT22;31358;46.008;11.144;2023-02-02T05:16:52;2.50;86.10
45643;DHT22;31358;46.008;11.144;2023-02-02T05:19:18;2.50;86.30
45643;DHT22;31358;46.008;11.144;2023-02-02T05:21:44;2.60;86.00
45643;DHT22;31358;46.008;11.144;2023-02-02T05:24:10;2.60;85.90
45643;DHT22;31358;46.008;11.144;2023-02-02T05:26:37;2.50;86.80
45643;DHT22;31358;46.008;11.144;2023-02-02T05:29:02;2.60;86.00
45643;DHT22;31358;46.008;11.144;2023-02-02T05:31:28;2.60;85.60
45643;DHT22;31358;46.008;11.144;2023-02-02T05:33:55;2.60;86.00
45643;DHT22;31358;46.008;11.144;2023-02-02T05:36:21;2.40;86.50
45643;DHT22;31358;46.008;11.144;2023-02-02T05:38:47;2.40;86.00
45643;DHT22;31358;46.008;11.144;2023-02-02T05:41:12;2.50;86.10
45643;DHT22;31358;46.008;11.144;2023-02-02T05:43:38;2.50;85.90
45643;DHT22;31358;46.008;11.144;2023-02-02T05:46:03;2.40;86.20
45643;DHT22;31358;46.008;11.144;2023-02-02T05:48:29;2.50;85.70
45643;DHT22;31358;46.008;11.144;2023-02-02T05:51:08;2.50;86.20
45643;DHT22;31358;46.008;11.144;2023-02-02T05:53:36;2.50;86.20
45643;DHT22;31358;46.008;11.144;2023-02-02T05:56:01;2.50;86.50
45643;DHT22;31358;46.008;11.144;2023-02-02T05:58:27;2.40;86.20
45643;DHT22;31358;46.008;11.144;2023-02-02T06:00:53;2.30;87.10
45643;DHT22;31358;46.008;11.144;2023-02-02T06:03:19;2.30;86.40
45643;DHT22;31358;46.008;11.144;2023-02-02T06:05:45;2.20;87.00
45643;DHT22;31358;46.008;11.144;2023-02-02T06:08:11;2.40;86.80
45643;DHT22;31358;46.008;11.144;2023-02-02T06:10:40;2.50;86.80
45643;DHT22;31358;46.008;11.144;2023-02-02T06:13:07;2.40;86.10
45643;DHT22;31358;46.008;11.144;2023-02-02T06:15:33;2.50;86.20
45643;DHT22;31358;46.008;11.144;2023-02-02T06:17:59;2.40;86.60
45643;DHT22;31358;46.008;11.144;2023-02-02T06:20:25;2.40;86.30
45643;DHT22;31358;46.008;11.144;2023-02-02T06:22:51;2.40;86.40
45643;DHT22;31358;46.008;11.144;2023-02-02T06:25:16;2.60;85.80
45643;DHT22;31358;46.008;11.144;2023-02-02T06:27:42;2.50;86.00
45643;DHT22;31358;46.008;11.144;2023-02-02T06:30:11;2.60;85.90
45643;DHT22;31358;46.008;11.144;2023-02-02T06:32:37;2.50;86.60
45643;DHT22;31358;46.008;11.144;2023-02-02T06:35:03;2.50;86.00
45643;DHT22;31358;46.008;11.144;2023-02-02T06:37:29;2.40;88.10
45643;DHT22;31358;46.008;11.144;2023-02-02T06:39:55;2.40;86.00
45643;DHT22;31358;46.008;11.144;2023-02-02T06:42:20;2.30;86.70
45643;DHT22;31358;46.008;11.144;2023-02-02T06:44:46;2.40;85.80
45643;DHT22;31358;46.008;11.144;2023-02-02T06:47:12;2.30;86.30
45643;DHT22;31358;46.008;11.144;2023-02-02T06:49:37;2.30;86.40
45643;DHT22;31358;46.008;11.144;2023-02-02T06:52:03;2.30;86.70
45643;DHT22;31358;46.008;11.144;2023-02-02T06:54:29;2.20;87.40
45643;DHT22;31358;46.008;11.144;2023-02-02T06:56:54;2.20;86.80
45643;DHT22;31358;46.008;11.144;2023-02-02T06:59:20;2.20;87.30
45643;DHT22;31358;46.008;11.144;2023-02-02T07:01:48;2.10;87.70
45643;DHT22;31358;46.008;11.144;2023-02-02T07:04:15;2.10;87.80
45643;DHT22;31358;46.008;11.144;2023-02-02T07:06:41;2.30;87.10
45643;DHT22;31358;46.008;11.144;2023-02-02T07:09:06;2.30;87.40
45643;DHT22;31358;46.008;11.144;2023-02-02T07:11:32;2.20;88.10
45643;DHT22;31358;46.008;11.144;2023-02-02T07:14:00;2.10;88.10
45643;DHT22;31358;46.008;11.144;2023-02-02T07:16:26;2.20;87.50
45643;DHT22;31358;46.008;11.144;2023-02-02T07:18:51;2.40;87.20
45643;DHT22;31358;46.008;11.144;2023-02-02T07:21:21;2.70;86.10
45643;DHT22;31358;46.008;11.144;2023-02-02T07:23:47;2.80;86.00
45643;DHT22;31358;46.008;11.144;2023-02-02T07:26:13;2.70;85.80
45643;DHT22;31358;46.008;11.144;2023-02-02T07:28:40;2.60;87.60
45643;DHT22;31358;46.008;11.144;2023-02-02T07:31:31;2.30;88.10
45643;DHT22;31358;46.008;11.144;2023-02-02T07:33:57;2.20;88.20
45643;DHT22;31358;46.008;11.144;2023-02-02T07:36:23;2.10;88.90
45643;DHT22;31358;46.008;11.144;2023-02-02T07:38:51;2.10;88.00
45643;DHT22;31358;46.008;11.144;2023-02-02T07:41:22;2.20;88.10
45643;DHT22;31358;46.008;11.144;2023-02-02T07:43:48;2.20;88.20
45643;DHT22;31358;46.008;11.144;2023-02-02T07:46:14;2.30;89.40
45643;DHT22;31358;46.008;11.144;2023-02-02T07:48:40;2.20;88.80
45643;DHT22;31358;46.008;11.144;2023-02-02T07:51:09;2.20;88.30
45643;DHT22;31358;46.008;11.144;2023-02-02T07:53:35;2.10;90.10
45643;DHT22;31358;46.008;11.144;2023-02-02T07:56:14;2.00;90.40
45643;DHT22;31358;46.008;11.144;2023-02-02T07:58:40;2.10;90.30
45643;DHT22;31358;46.008;11.144;2023-02-02T08:01:08;2.10;89.90
45643;DHT22;31358;46.008;11.144;2023-02-02T08:03:35;2.40;88.40
45643;DHT22;31358;46.008;11.144;2023-02-02T08:06:08;2.30;88.90
45643;DHT22;31358;46.008;11.144;2023-02-02T08:08:34;2.40;87.50
45643;DHT22;31358;46.008;11.144;2023-02-02T08:11:00;2.50;87.80
45643;DHT22;31358;46.008;11.144;2023-02-02T08:13:25;2.40;89.60
45643;DHT22;31358;46.008;11.144;2023-02-02T08:15:51;2.40;90.00
45643;DHT22;31358;46.008;11.144;2023-02-02T08:18:16;2.40;88.60
45643;DHT22;31358;46.008;11.144;2023-02-02T08:20:42;2.30;90.60
45643;DHT22;31358;46.008;11.144;2023-02-02T08:23:08;2.30;90.50
45643;DHT22;31358;46.008;11.144;2023-02-02T08:25:40;2.10;90.60
45643;DHT22;31358;46.008;11.144;2023-02-02T08:28:06;2.10;90.50
45643;DHT22;31358;46.008;11.144;2023-02-02T08:30:33;2.10;91.00
45643;DHT22;31358;46.008;11.144;2023-02-02T08:32:58;2.00;90.90
45643;DHT22;31358;46.008;11.144;2023-02-02T08:35:24;2.00;90.90
45643;DHT22;31358;46.008;11.144;2023-02-02T08:37:49;2.30;90.00
45643;DHT22;31358;46.008;11.144;2023-02-02T08:40:15;2.20;90.50
45643;DHT22;31358;46.008;11.144;2023-02-02T08:42:41;2.00;90.60
45643;DHT22;31358;46.008;11.144;2023-02-02T08:45:08;2.10;91.10
45643;DHT22;31358;46.008;11.144;2023-02-02T08:47:34;2.10;91.30
45643;DHT22;31358;46.008;11.144;2023-02-02T08:49:59;2.10;91.40
45643;DHT22;31358;46.008;11.144;2023-02-02T08:52:25;2.00;91.60
45643;DHT22;31358;46.008;11.144;2023-02-02T08:54:50;1.90;91.00
45643;DHT22;31358;46.008;11.144;2023-02-02T08:57:16;2.00;90.70
45643;DHT22;31358;46.008;11.144;2023-02-02T08:59:41;2.10;90.90
45643;DHT22;31358;46.008;11.144;2023-02-02T09:02:11;2.30;89.30
45643;DHT22;31358;46.008;11.144;2023-02-02T09:04:41;2.50;88.30
45643;DHT22;31358;46.008;11.144;2023-02-02T09:07:09;2.60;89.40
45643;DHT22;31358;46.008;11.144;2023-02-02T09:09:35;2.40;90.20
45643;DHT22;31358;46.008;11.144;2023-02-02T09:12:01;2.30;89.80
45643;DHT22;31358;46.008;11.144;2023-02-02T09:14:26;2.30;89.70
45643;DHT22;31358;46.008;11.144;2023-02-02T09:16:52;2.30;89.70
45643;DHT22;31358;46.008;11.144;2023-02-02T09:19:18;2.30;90.10
45643;DHT22;31358;46.008;11.144;2023-02-02T09:21:43;2.40;89.30
45643;DHT22;31358;46.008;11.144;2023-02-02T09:24:12;2.60;90.10
45643;DHT22;31358;46.008;11.144;2023-02-02T09:26:38;2.50;90.00
45643;DHT22;31358;46.008;11.144;2023-02-02T09:29:06;2.50;89.50
45643;DHT22;31358;46.008;11.144;2023-02-02T09:31:34;2.60;88.90
45643;DHT22;31358;46.008;11.144;2023-02-02T09:34:05;2.60;89.50
45643;DHT22;31358;46.008;11.144;2023-02-02T09:36:31;2.70;88.40
45643;DHT22;31358;46.008;11.144;2023-02-02T09:38:58;2.80;88.60
45643;DHT22;31358;46.008;11.144;2023-02-02T09:52:29;3.10;86.80
45643;DHT22;31358;46.008;11.144;2023-02-02T09:55:40;3.30;86.90
45643;DHT22;31358;46.008;11.144;2023-02-02T10:06:39;3.80;84.20
45643;DHT22;31358;46.008;11.144;2023-02-02T10:09:37;4.00;84.40
45643;DHT22;31358;46.008;11.144;2023-02-02T10:12:27;4.00;83.80
45643;DHT22;31358;46.008;11.144;2023-02-02T10:17:44;4.20;84.40
45643;DHT22;31358;46.008;11.144;2023-02-02T10:20:53;4.30;84.30
45643;DHT22;31358;46.008;11.144;2023-02-02T10:23:27;4.40;86.90
45643;DHT22;31358;46.008;11.144;2023-02-02T10:26:04;4.30;87.30
45643;DHT22;31358;46.008;11.144;2023-02-02T10:29:02;4.40;87.50
45643;DHT22;31358;46.008;11.144;2023-02-02T10:34:23;4.60;90.20
45643;DHT22;31358;46.008;11.144;2023-02-02T10:39:44;4.60;88.90
45643;DHT22;31358;46.008;11.144;2023-02-02T10:45:35;4.80;86.70
45643;DHT22;31358;46.008;11.144;2023-02-02T10:48:07;5.10;84.40
45643;DHT22;31358;46.008;11.144;2023-02-02T10:50:45;5.30;83.80
45643;DHT22;31358;46.008;11.144;2023-02-02T10:53:13;5.50;83.90
45643;DHT22;31358;46.008;11.144;2023-02-02T10:58:29;5.90;84.50
45643;DHT22;31358;46.008;11.144;2023-02-02T11:00:57;5.90;83.80
45643;DHT22;31358;46.008;11.144;2023-02-02T11:03:32;6.00;84.50
45643;DHT22;31358;46.008;11.144;2023-02-02T11:06:00;6.10;85.30
45643;DHT22;31358;46.008;11.144;2023-02-02T11:08:47;6.20;85.90
45643;DHT22;31358;46.008;11.144;2023-02-02T11:16:36;6.50;85.40
45643;DHT22;31358;46.008;11.144;2023-02-02T11:21:53;6.90;85.70
45643;DHT22;31358;46.008;11.144;2023-02-02T11:24:26;6.80;85.10
45643;DHT22;31358;46.008;11.144;2023-02-02T11:37:56;7.40;84.10
45643;DHT22;31358;46.008;11.144;2023-02-02T11:42:49;7.90;84.40
45643;DHT22;31358;46.008;11.144;2023-02-02T11:45:17;8.20;84.80
45643;DHT22;31358;46.008;11.144;2023-02-02T11:47:44;8.20;83.60
45643;DHT22;31358;46.008;11.144;2023-02-02T11:50:23;8.30;83.70
45643;DHT22;31358;46.008;11.144;2023-02-02T11:52:50;8.50;84.80
45643;DHT22;31358;46.008;11.144;2023-02-02T11:55:24;8.50;84.90
45643;DHT22;31358;46.008;11.144;2023-02-02T12:00:46;8.30;83.70
45643;DHT22;31358;46.008;11.144;2023-02-02T12:05:54;8.30;83.20
45643;DHT22;31358;46.008;11.144;2023-02-02T12:08:19;8.50;83.90
45643;DHT22;31358;46.008;11.144;2023-02-02T12:11:02;8.70;84.10
45643;DHT22;31358;46.008;11.144;2023-02-02T12:16:49;8.70;82.80
45643;DHT22;31358;46.008;11.144;2023-02-02T12:19:34;8.80;83.60
45643;DHT22;31358;46.008;11.144;2023-02-02T12:30:23;9.40;81.20
45643;DHT22;31358;46.008;11.144;2023-02-02T12:36:07;10.40;80.60
45643;DHT22;31358;46.008;11.144;2023-02-02T12:50:29;10.60;77.60
45643;DHT22;31358;46.008;11.144;2023-02-02T12:56:01;10.70;78.20
45643;DHT22;31358;46.008;11.144;2023-02-02T13:12:27;11.40;76.20
45643;DHT22;31358;46.008;11.144;2023-02-02T13:15:06;11.10;75.10
45643;DHT22;31358;46.008;11.144;2023-02-02T13:18:07;11.30;76.00
45643;DHT22;31358;46.008;11.144;2023-02-02T13:20:44;11.60;76.60
45643;DHT22;31358;46.008;11.144;2023-02-02T13:26:01;11.50;75.80
45643;DHT22;31358;46.008;11.144;2023-02-02T13:31:39;11.40;75.70
45643;DHT22;31358;46.008;11.144;2023-02-02T13:37:02;11.50;74.60
45643;DHT22;31358;46.008;11.144;2023-02-02T13:39:35;11.50;75.30
45643;DHT22;31358;46.008;11.144;2023-02-02T13:42:04;11.40;74.70
45643;DHT22;31358;46.008;11.144;2023-02-02T13:44:45;11.50;74.70
45643;DHT22;31358;46.008;11.144;2023-02-02T13:50:20;11.20;74.90
45643;DHT22;31358;46.008;11.144;2023-02-02T13:56:21;11.60;74.80
45643;DHT22;31358;46.008;11.144;2023-02-02T14:01:31;11.70;74.20
45643;DHT22;31358;46.008;11.144;2023-02-02T14:03:58;11.60;74.50
45643;DHT22;31358;46.008;11.144;2023-02-02T14:06:26;11.90;74.50
45643;DHT22;31358;46.008;11.144;2023-02-02T14:09:02;11.90;74.20
45643;DHT22;31358;46.008;11.144;2023-02-02T14:11:31;11.90;73.70
45643;DHT22;31358;46.008;11.144;2023-02-02T14:14:07;12.10;72.80
45643;DHT22;31358;46.008;11.144;2023-02-02T14:16:52;12.00;73.50
45643;DHT22;31358;46.008;11.144;2023-02-02T14:24:49;12.10;74.10
45643;DHT22;31358;46.008;11.144;2023-02-02T14:42:48;12.10;73.50
45643;DHT22;31358;46.008;11.144;2023-02-02T14:50:43;12.00;74.10
45643;DHT22;31358;46.008;11.144;2023-02-02T15:06:45;12.00;74.10
45643;DHT22;31358;46.008;11.144;2023-02-02T15:24:52;11.90;72.30
45643;DHT22;31358;46.008;11.144;2023-02-02T15:27:18;11.90;72.10
45643;DHT22;31358;46.008;11.144;2023-02-02T15:29:49;11.90;72.90
45643;DHT22;31358;46.008;11.144;2023-02-02T15:32:20;11.90;72.60
45643;DHT22;31358;46.008;11.144;2023-02-02T15:34:49;12.00;78.60
45643;DHT22;31358;46.008;11.144;2023-02-02T15:37:20;11.90;72.80
45643;DHT22;31358;46.008;11.144;2023-02-02T15:39:51;11.90;72.70
45643;DHT22;31358;46.008;11.144;2023-02-02T15:42:41;11.70;73.50
45643;DHT22;31358;46.008;11.144;2023-02-02T15:45:41;11.70;73.10
45643;DHT22;31358;46.008;11.144;2023-02-02T15:48:26;11.30;74.00
45643;DHT22;31358;46.008;11.144;2023-02-02T15:50:56;11.00;75.70
45643;DHT22;31358;46.008;11.144;2023-02-02T15:58:46;10.70;75.30
45643;DHT22;31358;46.008;11.144;2023-02-02T16:01:18;10.50;75.90
45643;DHT22;31358;46.008;11.144;2023-02-02T16:06:21;11.20;73.70
45643;DHT22;31358;46.008;11.144;2023-02-02T16:08:47;11.10;74.20
45643;DHT22;31358;46.008;11.144;2023-02-02T16:11:19;11.00;74.20
45643;DHT22;31358;46.008;11.144;2023-02-02T16:14:00;11.10;73.70
45643;DHT22;31358;46.008;11.144;2023-02-02T16:16:31;11.00;74.00
45643;DHT22;31358;46.008;11.144;2023-02-02T16:21:36;10.80;74.50
45643;DHT22;31358;46.008;11.144;2023-02-02T16:24:31;10.70;74.90
45643;DHT22;31358;46.008;11.144;2023-02-02T16:26:58;10.60;75.10
45643;DHT22;31358;46.008;11.144;2023-02-02T16:29:25;10.50;75.20
45643;DHT22;31358;46.008;11.144;2023-02-02T16:31:53;10.20;75.90
45643;DHT22;31358;46.008;11.144;2023-02-02T16:39:37;10.10;76.90
45643;DHT22;31358;46.008;11.144;2023-02-02T16:42:29;9.70;77.70
45643;DHT22;31358;46.008;11.144;2023-02-02T16:44:57;9.70;77.60
45643;DHT22;31358;46.008;11.144;2023-02-02T16:52:32;9.80;77.30
45643;DHT22;31358;46.008;11.144;2023-02-02T16:54:58;9.60;78.00
45643;DHT22;31358;46.008;11.144;2023-02-02T16:57:31;9.50;78.30
45643;DHT22;31358;46.008;11.144;2023-02-02T17:00:05;9.40;78.20
45643;DHT22;31358;46.008;11.144;2023-02-02T17:02:39;9.30;78.60
45643;DHT22;31358;46.008;11.144;2023-02-02T17:05:29;9.20;78.70
45643;DHT22;31358;46.008;11.144;2023-02-02T17:08:02;9.10;79.00
45643;DHT22;31358;46.008;11.144;2023-02-02T17:10:41;9.10;78.50
45643;DHT22;31358;46.008;11.144;2023-02-02T17:15:55;9.70;76.70
45643;DHT22;31358;46.008;11.144;2023-02-02T17:18:21;10.10;76.30
45643;DHT22;31358;46.008;11.144;2023-02-02T17:20:48;10.10;76.30
45643;DHT22;31358;46.008;11.144;2023-02-02T17:23:20;9.80;76.70
45643;DHT22;31358;46.008;11.144;2023-02-02T17:25:46;9.90;76.80
45643;DHT22;31358;46.008;11.144;2023-02-02T17:28:19;9.90;76.50
45643;DHT22;31358;46.008;11.144;2023-02-02T17:30:47;10.20;75.90
45643;DHT22;31358;46.008;11.144;2023-02-02T17:33:16;9.90;76.60
45643;DHT22;31358;46.008;11.144;2023-02-02T17:35:43;9.80;77.20
45643;DHT22;31358;46.008;11.144;2023-02-02T17:38:09;9.90;76.40
45643;DHT22;31358;46.008;11.144;2023-02-02T17:40:35;9.70;77.10
45643;DHT22;31358;46.008;11.144;2023-02-02T17:43:01;9.60;77.60
45643;DHT22;31358;46.008;11.144;2023-02-02T17:45:32;9.60;77.10
45643;DHT22;31358;46.008;11.144;2023-02-02T17:47:58;9.80;76.70
45643;DHT22;31358;46.008;11.144;2023-02-02T17:50:25;10.00;76.40
45643;DHT22;31358;46.008;11.144;2023-02-02T17:52:51;10.20;75.90
45643;DHT22;31358;46.008;11.144;2023-02-02T17:55:30;10.40;75.70
45643;DHT22;31358;46.008;11.144;2023-02-02T17:57:56;10.50;75.30
45643;DHT22;31358;46.008;11.144;2023-02-02T18:00:24;10.40;75.70
45643;DHT22;31358;46.008;11.144;2023-02-02T18:02:52;10.00;76.40
45643;DHT22;31358;46.008;11.144;2023-02-02T18:05:19;9.60;77.50
45643;DHT22;31358;46.008;11.144;2023-02-02T18:07:45;9.50;77.50
45643;DHT22;31358;46.008;11.144;2023-02-02T18:10:13;9.60;79.50
45643;DHT22;31358;46.008;11.144;2023-02-02T18:12:39;9.70;77.60
45643;DHT22;31358;46.008;11.144;2023-02-02T18:15:07;9.40;78.00
45643;DHT22;31358;46.008;11.144;2023-02-02T18:17:34;9.70;77.50
45643;DHT22;31358;46.008;11.144;2023-02-02T18:19:59;9.60;77.50
45643;DHT22;31358;46.008;11.144;2023-02-02T18:22:25;9.20;78.20
45643;DHT22;31358;46.008;11.144;2023-02-02T18:24:51;9.20;78.40
45643;DHT22;31358;46.008;11.144;2023-02-02T18:27:17;9.20;78.40
45643;DHT22;31358;46.008;11.144;2023-02-02T18:29:46;9.20;78.30
45643;DHT22;31358;46.008;11.144;2023-02-02T18:32:15;9.10;78.50
45643;DHT22;31358;46.008;11.144;2023-02-02T18:34:43;9.00;78.90
45643;DHT22;31358;46.008;11.144;2023-02-02T18:37:09;9.00;78.80
45643;DHT22;31358;46.008;11.144;2023-02-02T18:39:34;8.70;79.10
45643;DHT22;31358;46.008;11.144;2023-02-02T18:42:00;8.90;78.90
45643;DHT22;31358;46.008;11.144;2023-02-02T18:44:27;8.60;79.50
45643;DHT22;31358;46.008;11.144;2023-02-02T18:46:52;8.70;79.70
45643;DHT22;31358;46.008;11.144;2023-02-02T18:49:19;8.60;79.60
45643;DHT22;31358;46.008;11.144;2023-02-02T18:51:44;8.90;79.10
45643;DHT22;31358;46.008;11.144;2023-02-02T18:54:12;8.80;79.50
45643;DHT22;31358;46.008;11.144;2023-02-02T18:56:38;8.50;79.60
45643;DHT22;31358;46.008;11.144;2023-02-02T18:59:04;8.60;79.80
45643;DHT22;31358;46.008;11.144;2023-02-02T19:01:31;8.50;80.10
45643;DHT22;31358;46.008;11.144;2023-02-02T19:03:57;8.40;80.20
45643;DHT22;31358;46.008;11.144;2023-02-02T19:06:24;8.30;80.40
45643;DHT22;31358;46.008;11.144;2023-02-02T19:09:08;8.20;80.30
45643;DHT22;31358;46.008;11.144;2023-02-02T19:11:37;8.20;80.90
45643;DHT22;31358;46.008;11.144;2023-02-02T19:14:18;8.50;80.10
45643;DHT22;31358;46.008;11.144;2023-02-02T19:16:46;8.60;79.70
45643;DHT22;31358;46.008;11.144;2023-02-02T19:19:31;8.20;80.40
45643;DHT22;31358;46.008;11.144;2023-02-02T19:21:59;8.00;80.80
45643;DHT22;31358;46.008;11.144;2023-02-02T19:24:30;8.10;80.90
45643;DHT22;31358;46.008;11.144;2023-02-02T19:26:58;7.80;81.60
45643;DHT22;31358;46.008;11.144;2023-02-02T19:29:25;7.90;81.10
45643;DHT22;31358;46.008;11.144;2023-02-02T19:31:59;7.80;81.40
45643;DHT22;31358;46.008;11.144;2023-02-02T19:34:27;7.60;82.10
45643;DHT22;31358;46.008;11.144;2023-02-02T19:36:53;7.70;81.90
45643;DHT22;31358;46.008;11.144;2023-02-02T19:39:28;7.70;81.80